createdAt,value
2018-04-25T00:00:49.599Z,12.77
2018-04-25T00:01:55.782Z,12.00
2018-04-25T00:03:01.400Z,14.07
2018-04-25T00:04:07.835Z,12.73
2018-04-25T00:05:14.056Z,12.98
2018-04-25T00:06:20.416Z,10.95
2018-04-25T00:07:26.003Z,11.68
2018-04-25T00:08:32.548Z,12.68
2018-04-25T00:09:39.150Z,13.60
2018-04-25T00:10:45.202Z,12.40
2018-04-25T00:11:51.179Z,12.43
2018-04-25T00:12:57.107Z,14.45
2018-04-25T00:14:02.867Z,13.62
2018-04-25T00:15:08.510Z,12.52
2018-04-25T00:16:13.815Z,13.45
2018-04-25T00:17:20.819Z,12.37
2018-04-25T00:18:26.547Z,12.43
2018-04-25T00:19:32.494Z,11.27
2018-04-25T00:20:38.374Z,10.90
2018-04-25T00:21:44.317Z,13.27
2018-04-25T00:22:50.203Z,12.35
2018-04-25T00:23:57.537Z,10.48
2018-04-25T00:25:03.345Z,13.65
2018-04-25T00:26:09.347Z,11.32
2018-04-25T00:27:15.568Z,14.05
2018-04-25T00:28:21.605Z,13.98
2018-04-25T00:29:30.905Z,11.65
2018-04-25T00:30:37.161Z,11.70
2018-04-25T00:31:43.009Z,11.02
2018-04-25T00:32:52.000Z,11.63
2018-04-25T00:33:58.482Z,11.23
2018-04-25T00:35:05.012Z,11.35
2018-04-25T00:36:11.279Z,12.48
2018-04-25T00:37:17.203Z,13.50
2018-04-25T00:38:23.538Z,11.30
2018-04-25T00:39:29.926Z,12.80
2018-04-25T00:40:35.568Z,12.82
2018-04-25T00:41:41.122Z,12.85
2018-04-25T00:42:46.447Z,11.65
2018-04-25T00:43:51.696Z,10.77
2018-04-25T00:44:57.775Z,13.93
2018-04-25T00:46:03.296Z,14.77
2018-04-25T00:47:08.891Z,11.95
2018-04-25T00:48:14.527Z,12.80
2018-04-25T00:49:19.790Z,11.93
2018-04-25T00:50:25.767Z,11.45
2018-04-25T00:51:31.502Z,13.00
2018-04-25T00:52:36.767Z,12.05
2018-04-25T00:53:43.391Z,14.85
2018-04-25T00:54:49.008Z,12.93
2018-04-25T00:55:54.616Z,12.55
2018-04-25T00:57:00.202Z,10.90
2018-04-25T00:58:06.231Z,12.55
2018-04-25T00:59:11.773Z,14.23
2018-04-25T01:00:18.050Z,12.50
2018-04-25T01:01:23.296Z,11.43
2018-04-25T01:02:29.197Z,13.20
2018-04-25T01:03:34.512Z,11.90
2018-04-25T01:04:40.279Z,12.07
2018-04-25T01:05:50.530Z,10.45
2018-04-25T01:06:56.030Z,11.40
2018-04-25T01:08:02.169Z,14.65
2018-04-25T01:09:07.483Z,12.52
2018-04-25T01:10:13.223Z,13.77
2018-04-25T01:11:18.831Z,12.98
2018-04-25T01:12:24.131Z,11.48
2018-04-25T01:13:30.151Z,12.10
2018-04-25T01:14:36.695Z,12.10
2018-04-25T01:15:42.454Z,16.35
2018-04-25T01:16:48.660Z,12.57
2018-04-25T01:17:54.010Z,13.90
2018-04-25T01:18:59.707Z,14.18
2018-04-25T01:20:05.314Z,13.90
2018-04-25T01:21:10.668Z,12.73
2018-04-25T01:22:16.714Z,14.68
2018-04-25T01:23:25.953Z,12.95
2018-04-25T01:24:31.205Z,12.52
2018-04-25T01:25:37.291Z,13.00
2018-04-25T01:26:44.519Z,12.98
2018-04-25T01:27:51.180Z,13.70
2018-04-25T01:28:57.360Z,15.63
2018-04-25T01:30:02.700Z,15.93
2018-04-25T01:31:23.628Z,13.48
2018-04-25T01:32:28.994Z,15.55
2018-04-25T01:33:51.773Z,15.15
2018-04-25T01:34:58.915Z,13.48
2018-04-25T01:37:53.709Z,13.35
2018-04-25T01:39:03.219Z,14.30
2018-04-25T01:40:09.401Z,13.50
2018-04-25T01:41:15.728Z,12.32
2018-04-25T01:44:39.759Z,12.98
2018-04-25T01:47:20.739Z,12.80
2018-04-25T01:48:32.926Z,13.75
2018-04-25T01:49:41.947Z,12.07
2018-04-25T01:50:47.297Z,12.77
2018-04-25T01:52:04.517Z,12.13
2018-04-25T01:53:27.415Z,12.77
2018-04-25T01:54:50.760Z,11.75
2018-04-25T01:56:13.723Z,12.10
2018-04-25T01:57:37.628Z,13.90
2018-04-25T01:59:00.661Z,15.05
2018-04-25T02:00:24.259Z,14.18
2018-04-25T02:01:34.887Z,14.80
2018-04-25T02:02:40.092Z,14.90
2018-04-25T02:04:00.686Z,12.73
2018-04-25T02:05:06.367Z,13.57
2018-04-25T02:06:12.262Z,13.10
2018-04-25T02:07:18.565Z,12.27
2018-04-25T02:08:24.751Z,13.05
2018-04-25T02:09:30.996Z,12.18
2018-04-25T02:10:38.893Z,14.65
2018-04-25T02:11:46.391Z,13.68
2018-04-25T02:12:52.722Z,12.15
2018-04-25T02:14:10.834Z,13.32
2018-04-25T02:15:17.518Z,12.20
2018-04-25T02:16:23.771Z,13.20
2018-04-25T02:17:30.071Z,13.90
2018-04-25T02:18:36.016Z,12.23
2018-04-25T02:19:42.026Z,16.33
2018-04-25T02:20:48.302Z,12.93
2018-04-25T02:21:54.547Z,11.80
2018-04-25T02:23:00.746Z,12.45
2018-04-25T02:24:07.043Z,14.90
2018-04-25T02:25:13.363Z,13.15
2018-04-25T02:26:20.986Z,13.68
2018-04-25T02:27:27.219Z,17.62
2018-04-25T02:28:34.326Z,18.02
2018-04-25T02:29:42.654Z,12.40
2018-04-25T02:30:48.903Z,13.82
2018-04-25T02:31:56.461Z,14.65
2018-04-25T02:33:02.718Z,15.07
2018-04-25T02:34:08.951Z,13.90
2018-04-25T02:35:15.307Z,14.38
2018-04-25T02:36:21.584Z,13.02
2018-04-25T02:37:27.656Z,14.52
2018-04-25T02:38:33.896Z,15.63
2018-04-25T02:39:40.143Z,13.98
2018-04-25T02:40:46.422Z,14.20
2018-04-25T02:41:55.140Z,15.20
2018-04-25T02:43:01.988Z,13.07
2018-04-25T02:44:07.870Z,14.38
2018-04-25T02:45:14.160Z,13.50
2018-04-25T02:46:20.457Z,15.00
2018-04-25T02:47:26.747Z,12.90
2018-04-25T02:48:33.058Z,14.40
2018-04-25T02:49:39.927Z,12.32
2018-04-25T02:50:46.272Z,12.32
2018-04-25T02:51:52.519Z,12.73
2018-04-25T02:52:58.860Z,15.40
2018-04-25T02:54:05.571Z,13.73
2018-04-25T02:55:11.874Z,11.82
2018-04-25T02:56:18.178Z,13.25
2018-04-25T02:57:26.488Z,13.18
2018-04-25T02:58:33.860Z,12.63
2018-04-25T02:59:40.211Z,11.43
2018-04-25T03:00:46.498Z,11.40
2018-04-25T03:01:52.806Z,11.95
2018-04-25T03:02:59.025Z,11.98
2018-04-25T03:04:05.994Z,11.68
2018-04-25T03:05:12.772Z,10.40
2018-04-25T03:06:19.123Z,11.52
2018-04-25T03:07:25.103Z,11.65
2018-04-25T03:08:31.359Z,11.60
2018-04-25T03:09:37.568Z,10.02
2018-04-25T03:10:43.931Z,11.98
2018-04-25T03:11:50.235Z,10.73
2018-04-25T03:12:56.508Z,8.63
2018-04-25T03:14:03.926Z,10.88
2018-04-25T03:15:10.210Z,11.98
2018-04-25T03:16:16.244Z,9.82
2018-04-25T03:17:22.603Z,9.68
2018-04-25T03:18:28.838Z,9.40
2018-04-25T03:19:35.687Z,9.55
2018-04-25T03:20:41.941Z,9.40
2018-04-25T03:21:48.107Z,10.02
2018-04-25T03:22:54.370Z,8.60
2018-04-25T03:24:05.410Z,11.55
2018-04-25T03:25:11.696Z,9.48
2018-04-25T03:26:17.659Z,9.38
2018-04-25T03:27:24.007Z,9.57
2018-04-25T03:28:30.204Z,10.05
2018-04-25T03:29:36.519Z,8.10
2018-04-25T03:30:42.755Z,8.73
2018-04-25T03:31:49.052Z,8.32
2018-04-25T03:32:55.226Z,9.75
2018-04-25T03:34:01.475Z,9.52
2018-04-25T03:35:07.741Z,8.57
2018-04-25T03:36:14.007Z,10.75
2018-04-25T03:37:21.384Z,9.50
2018-04-25T03:38:29.778Z,9.45
2018-04-25T03:39:36.066Z,9.27
2018-04-25T03:40:42.322Z,8.30
2018-04-25T03:41:48.530Z,8.52
2018-04-25T03:42:55.011Z,8.50
2018-04-25T03:44:01.784Z,8.73
2018-04-25T03:45:07.820Z,8.45
2018-04-25T03:46:14.056Z,9.07
2018-04-25T03:47:20.258Z,9.90
2018-04-25T03:48:26.450Z,8.10
2018-04-25T03:49:32.773Z,9.07
2018-04-25T03:50:39.147Z,9.20
2018-04-25T03:51:45.423Z,10.95
2018-04-25T03:52:52.396Z,8.52
2018-04-25T03:53:58.656Z,8.90
2018-04-25T03:55:04.839Z,8.68
2018-04-25T03:56:11.089Z,8.25
2018-04-25T03:57:17.332Z,11.30
2018-04-25T03:58:25.438Z,8.73
2018-04-25T03:59:33.982Z,9.40
2018-04-25T04:00:43.301Z,8.43
2018-04-25T04:01:51.990Z,5.62
2018-04-25T04:03:00.604Z,6.50
2018-04-25T04:04:07.913Z,6.22
2018-04-25T04:05:15.672Z,6.57
2018-04-25T04:06:22.807Z,7.20
2018-04-25T04:07:29.124Z,5.20
2018-04-25T04:08:35.313Z,6.65
2018-04-25T04:09:41.569Z,5.43
2018-04-25T04:10:47.851Z,5.25
2018-04-25T04:11:54.094Z,5.00
2018-04-25T04:13:01.983Z,5.82
2018-04-25T04:14:08.730Z,5.97
2018-04-25T04:15:14.958Z,5.50
2018-04-25T04:16:21.183Z,4.28
2018-04-25T04:17:27.272Z,5.10
2018-04-25T04:18:33.981Z,5.00
2018-04-25T04:19:40.135Z,4.80
2018-04-25T04:20:46.399Z,4.80
2018-04-25T04:21:52.657Z,4.37
2018-04-25T04:22:58.948Z,5.15
2018-04-25T04:24:04.911Z,3.83
2018-04-25T04:25:11.246Z,4.65
2018-04-25T04:26:21.478Z,4.93
2018-04-25T04:27:28.419Z,4.60
2018-04-25T04:28:34.362Z,4.40
2018-04-25T04:29:45.156Z,4.30
2018-04-25T04:30:51.864Z,5.20
2018-04-25T04:31:58.091Z,4.12
2018-04-25T04:33:04.325Z,4.87
2018-04-25T04:34:10.207Z,4.47
2018-04-25T04:35:16.194Z,4.87
2018-04-25T04:36:22.463Z,5.47
2018-04-25T04:37:28.765Z,4.50
2018-04-25T04:38:34.822Z,5.87
2018-04-25T04:39:41.079Z,4.85
2018-04-25T04:40:47.309Z,5.53
2018-04-25T04:41:53.519Z,4.35
2018-04-25T04:42:59.802Z,4.47
2018-04-25T04:44:06.027Z,4.93
2018-04-25T04:45:13.175Z,4.70
2018-04-25T04:46:19.467Z,7.87
2018-04-25T04:47:25.671Z,4.43
2018-04-25T04:48:32.908Z,4.80
2018-04-25T04:49:39.229Z,5.55
2018-04-25T04:50:45.530Z,4.65
2018-04-25T04:51:54.322Z,4.37
2018-04-25T04:53:00.574Z,4.80
2018-04-25T04:54:06.814Z,4.10
2018-04-25T04:55:12.998Z,4.15
2018-04-25T04:56:19.285Z,4.25
2018-04-25T04:57:26.796Z,4.10
2018-04-25T04:58:34.177Z,5.90
2018-04-25T04:59:40.498Z,5.05
2018-04-25T05:00:46.962Z,5.00
2018-04-25T05:01:53.280Z,4.60
2018-04-25T05:02:59.890Z,5.53
2018-04-25T05:04:06.278Z,4.62
2018-04-25T05:05:12.626Z,5.15
2018-04-25T05:06:19.197Z,4.20
2018-04-25T05:07:28.572Z,5.55
2018-04-25T05:08:35.682Z,4.40
2018-04-25T05:09:42.032Z,4.10
2018-04-25T05:10:48.295Z,4.05
2018-04-25T05:11:54.632Z,4.68
2018-04-25T05:13:00.903Z,4.57
2018-04-25T05:14:07.270Z,4.10
2018-04-25T05:15:14.060Z,5.28
2018-04-25T05:16:21.701Z,4.65
2018-04-25T05:17:28.104Z,4.12
2018-04-25T05:18:34.252Z,4.95
2018-04-25T05:19:40.480Z,3.97
2018-04-25T05:20:47.414Z,5.97
2018-04-25T05:21:53.671Z,5.30
2018-04-25T05:23:01.858Z,5.00
2018-04-25T05:24:09.359Z,4.15
2018-04-25T05:25:15.618Z,4.25
2018-04-25T05:26:21.971Z,4.10
2018-04-25T05:27:28.513Z,4.40
2018-04-25T05:28:35.418Z,5.62
2018-04-25T05:29:41.704Z,4.55
2018-04-25T05:30:47.899Z,4.55
2018-04-25T05:31:54.230Z,4.75
2018-04-25T05:33:00.733Z,5.25
2018-04-25T05:34:07.700Z,5.55
2018-04-25T05:35:13.966Z,4.60
2018-04-25T05:36:20.299Z,4.53
2018-04-25T05:37:26.495Z,8.05
2018-04-25T05:38:34.386Z,4.10
2018-04-25T05:39:42.161Z,5.10
2018-04-25T05:40:48.414Z,5.30
2018-04-25T05:41:54.823Z,5.32
2018-04-25T05:43:01.047Z,3.95
2018-04-25T05:44:07.334Z,4.45
2018-04-25T05:45:13.415Z,4.62
2018-04-25T05:46:19.629Z,3.58
2018-04-25T05:47:26.713Z,4.12
2018-04-25T05:48:32.997Z,4.50
2018-04-25T05:49:39.194Z,4.70
2018-04-25T05:50:45.400Z,4.12
2018-04-25T05:51:51.407Z,4.95
2018-04-25T05:52:57.610Z,4.72
2018-04-25T05:54:03.985Z,4.50
2018-04-25T05:55:10.246Z,3.70
2018-04-25T05:56:16.565Z,4.22
2018-04-25T05:57:22.790Z,5.40
2018-04-25T05:58:29.071Z,3.97
2018-04-25T05:59:35.366Z,5.68
2018-04-25T06:00:41.684Z,3.83
2018-04-25T06:01:47.938Z,4.62
2018-04-25T06:02:54.327Z,5.68
2018-04-25T06:04:00.584Z,5.10
2018-04-25T06:05:06.847Z,4.90
2018-04-25T06:06:13.023Z,4.45
2018-04-25T06:07:19.742Z,5.28
2018-04-25T06:08:25.956Z,5.25
2018-04-25T06:09:32.211Z,4.80
2018-04-25T06:10:38.507Z,4.75
2018-04-25T06:11:45.072Z,4.40
2018-04-25T06:12:52.169Z,3.97
2018-04-25T06:14:00.017Z,4.75
2018-04-25T06:15:06.690Z,9.27
2018-04-25T06:16:13.518Z,4.78
2018-04-25T06:17:20.188Z,4.53
2018-04-25T06:18:26.740Z,4.70
2018-04-25T06:19:33.562Z,4.05
2018-04-25T06:20:40.004Z,4.70
2018-04-25T06:21:46.426Z,6.10
2018-04-25T06:22:53.238Z,4.93
2018-04-25T06:23:59.579Z,6.18
2018-04-25T06:25:05.920Z,6.47
2018-04-25T06:26:12.779Z,4.30
2018-04-25T06:27:20.128Z,4.00
2018-04-25T06:28:26.493Z,3.90
2018-04-25T06:29:32.686Z,5.05
2018-04-25T06:30:40.422Z,4.70
2018-04-25T06:31:46.651Z,4.20
2018-04-25T06:32:53.210Z,4.65
2018-04-25T06:33:59.313Z,4.32
2018-04-25T06:35:06.032Z,4.90
2018-04-25T06:36:11.963Z,4.30
2018-04-25T06:37:18.023Z,4.80
2018-04-25T06:38:28.076Z,4.32
2018-04-25T06:39:37.939Z,4.93
2018-04-25T06:40:44.173Z,4.60
2018-04-25T06:41:50.403Z,6.22
2018-04-25T06:42:56.717Z,4.22
2018-04-25T06:44:03.579Z,5.18
2018-04-25T06:45:09.943Z,4.78
2018-04-25T06:46:16.159Z,4.05
2018-04-25T06:47:22.339Z,4.47
2018-04-25T06:48:29.987Z,6.03
2018-04-25T06:49:36.195Z,5.22
2018-04-25T06:50:42.578Z,6.15
2018-04-25T06:51:48.921Z,4.95
2018-04-25T06:52:56.832Z,4.87
2018-04-25T06:54:03.579Z,6.25
2018-04-25T06:55:09.931Z,4.90
2018-04-25T06:56:16.191Z,4.90
2018-04-25T06:57:22.471Z,4.65
2018-04-25T06:58:28.762Z,5.05
2018-04-25T06:59:36.604Z,4.40
2018-04-25T07:00:44.687Z,4.57
2018-04-25T07:01:51.058Z,5.40
2018-04-25T07:02:57.311Z,5.53
2018-04-25T07:04:03.575Z,5.35
2018-04-25T07:05:09.887Z,8.55
2018-04-25T07:06:16.108Z,7.55
2018-04-25T07:07:23.536Z,4.90
2018-04-25T07:08:29.776Z,4.37
2018-04-25T07:09:35.950Z,5.72
2018-04-25T07:10:42.141Z,5.32
2018-04-25T07:11:48.368Z,5.15
2018-04-25T07:12:54.703Z,7.55
2018-04-25T07:14:01.017Z,5.37
2018-04-25T07:15:07.082Z,5.07
2018-04-25T07:16:13.310Z,5.10
2018-04-25T07:17:23.642Z,6.37
2018-04-25T07:18:30.934Z,5.43
2018-04-25T07:19:37.142Z,5.60
2018-04-25T07:20:43.990Z,6.15
2018-04-25T07:21:50.229Z,4.85
2018-04-25T07:22:56.502Z,5.25
2018-04-25T07:24:02.728Z,6.15
2018-04-25T07:25:08.805Z,4.80
2018-04-25T07:26:15.004Z,6.22
2018-04-25T07:27:21.362Z,5.90
2018-04-25T07:28:28.271Z,5.25
2018-04-25T07:29:34.574Z,7.57
2018-04-25T07:30:40.892Z,5.55
2018-04-25T07:31:47.102Z,5.15
2018-04-25T07:32:55.426Z,6.20
2018-04-25T07:34:03.393Z,6.47
2018-04-25T07:35:09.632Z,6.30
2018-04-25T07:36:15.946Z,7.65
2018-04-25T07:37:22.150Z,6.15
2018-04-25T07:38:28.363Z,6.15
2018-04-25T07:39:34.568Z,7.05
2018-04-25T07:40:40.771Z,5.80
2018-04-25T07:41:52.302Z,5.82
2018-04-25T07:42:58.929Z,6.85
2018-04-25T07:44:05.187Z,7.72
2018-04-25T07:45:11.456Z,6.90
2018-04-25T07:46:17.739Z,7.20
2018-04-25T07:47:23.954Z,6.95
2018-04-25T07:48:33.878Z,6.32
2018-04-25T07:49:40.568Z,5.45
2018-04-25T07:50:46.795Z,7.10
2018-04-25T07:51:53.019Z,6.62
2018-04-25T07:52:59.299Z,5.68
2018-04-25T07:54:05.583Z,6.43
2018-04-25T07:55:11.827Z,5.62
2018-04-25T07:56:18.031Z,7.93
2018-04-25T07:57:24.923Z,7.12
2018-04-25T07:58:31.196Z,5.53
2018-04-25T07:59:37.416Z,5.97
2018-04-25T08:00:43.699Z,7.03
2018-04-25T08:01:49.999Z,7.15
2018-04-25T08:02:56.237Z,5.72
2018-04-25T08:04:04.007Z,8.07
2018-04-25T08:05:11.993Z,6.90
2018-04-25T08:06:18.210Z,8.07
2018-04-25T08:07:24.438Z,6.45
2018-04-25T08:08:31.550Z,5.68
2018-04-25T08:09:37.787Z,6.25
2018-04-25T08:10:43.975Z,7.20
2018-04-25T08:11:50.172Z,5.70
2018-04-25T08:13:07.499Z,6.03
2018-04-25T08:14:24.694Z,5.78
2018-04-25T08:15:43.068Z,10.35
2018-04-25T08:17:00.110Z,5.82
2018-04-25T08:18:17.246Z,6.97
2018-04-25T08:19:34.235Z,6.18
2018-04-25T08:22:20.071Z,6.30
2018-04-25T08:23:27.591Z,5.75
2018-04-25T08:24:33.906Z,6.45
2018-04-25T08:25:40.123Z,6.32
2018-04-25T08:26:46.858Z,6.50
2018-04-25T08:27:53.158Z,6.50
2018-04-25T08:28:59.448Z,5.80
2018-04-25T08:30:08.588Z,7.75
2018-04-25T08:31:15.018Z,6.43
2018-04-25T08:32:21.267Z,6.53
2018-04-25T08:33:27.547Z,7.35
2018-04-25T08:34:34.035Z,9.18
2018-04-25T08:35:40.298Z,9.30
2018-04-25T08:36:46.627Z,9.15
2018-04-25T08:37:52.830Z,10.15
2018-04-25T08:38:59.113Z,7.57
2018-04-25T08:40:05.138Z,7.35
2018-04-25T08:41:11.137Z,6.03
2018-04-25T08:42:18.204Z,6.97
2018-04-25T08:43:24.511Z,7.12
2018-04-25T08:44:33.612Z,6.65
2018-04-25T08:45:45.800Z,6.90
2018-04-25T08:46:51.952Z,7.75
2018-04-25T08:47:58.840Z,6.97
2018-04-25T08:49:04.874Z,6.55
2018-04-25T08:50:11.407Z,6.18
2018-04-25T08:51:17.644Z,6.80
2018-04-25T08:52:23.891Z,6.30
2018-04-25T08:53:30.699Z,6.37
2018-04-25T08:54:38.371Z,6.30
2018-04-25T08:55:46.480Z,7.18
2018-04-25T08:56:52.722Z,6.72
2018-04-25T08:57:58.954Z,6.78
2018-04-25T08:59:05.024Z,8.25
2018-04-25T09:00:11.822Z,7.80
2018-04-25T09:01:20.041Z,8.35
2018-04-25T09:02:25.954Z,6.20
2018-04-25T09:03:32.858Z,7.32
2018-04-25T09:04:39.175Z,6.47
2018-04-25T09:05:47.557Z,8.52
2018-04-25T09:06:53.739Z,6.05
2018-04-25T09:08:00.031Z,5.93
2018-04-25T09:09:05.625Z,7.68
2018-04-25T09:10:12.425Z,6.50
2018-04-25T09:11:18.615Z,7.75
2018-04-25T09:12:24.846Z,6.47
2018-04-25T09:13:31.098Z,7.25
2018-04-25T09:14:37.086Z,6.07
2018-04-25T09:15:43.319Z,6.97
2018-04-25T09:16:51.282Z,8.60
2018-04-25T09:17:59.794Z,7.35
2018-04-25T09:19:05.937Z,6.47
2018-04-25T09:20:12.208Z,6.65
2018-04-25T09:21:18.299Z,6.50
2018-04-25T09:22:25.714Z,6.10
2018-04-25T09:23:31.915Z,6.20
2018-04-25T09:24:38.884Z,6.05
2018-04-25T09:25:45.607Z,6.47
2018-04-25T09:26:53.784Z,6.43
2018-04-25T09:28:01.355Z,6.18
2018-04-25T09:29:07.716Z,5.80
2018-04-25T09:30:13.919Z,6.97
2018-04-25T09:31:20.343Z,8.77
2018-04-25T09:32:28.448Z,6.25
2018-04-25T09:33:35.939Z,6.55
2018-04-25T09:34:42.541Z,5.82
2018-04-25T09:35:49.313Z,7.25
2018-04-25T09:36:56.386Z,5.68
2018-04-25T09:38:03.346Z,6.37
2018-04-25T09:39:10.259Z,6.40
2018-04-25T09:40:16.841Z,5.80
2018-04-25T09:41:23.286Z,5.97
2018-04-25T09:42:29.499Z,6.75
2018-04-25T09:43:35.407Z,7.40
2018-04-25T09:44:43.610Z,5.72
2018-04-25T09:45:50.343Z,8.10
2018-04-25T09:46:56.739Z,5.53
2018-04-25T09:48:04.397Z,5.50
2018-04-25T09:49:11.196Z,6.05
2018-04-25T09:50:17.399Z,6.15
2018-04-25T09:51:24.421Z,6.93
2018-04-25T09:52:30.647Z,6.10
2018-04-25T09:53:37.717Z,5.65
2018-04-25T09:54:44.003Z,7.05
2018-04-25T09:55:50.303Z,7.47
2018-04-25T09:56:57.727Z,5.72
2018-04-25T09:58:04.270Z,6.22
2018-04-25T09:59:10.779Z,6.78
2018-04-25T10:00:16.831Z,6.47
2018-04-25T10:01:29.047Z,5.68
2018-04-25T10:02:36.683Z,6.68
2018-04-25T10:03:44.067Z,5.07
2018-04-25T10:04:50.279Z,5.78
2018-04-25T10:05:56.706Z,4.93
2018-04-25T10:07:03.289Z,5.57
2018-04-25T10:08:12.771Z,5.45
2018-04-25T10:09:19.703Z,5.18
2018-04-25T10:10:26.734Z,5.15
2018-04-25T10:11:33.034Z,5.60
2018-04-25T10:12:39.431Z,5.00
2018-04-25T10:13:46.143Z,4.95
2018-04-25T10:14:52.585Z,5.40
2018-04-25T10:15:58.870Z,6.07
2018-04-25T10:17:05.184Z,7.22
2018-04-25T10:18:11.929Z,5.20
2018-04-25T10:19:18.432Z,4.68
2018-04-25T10:20:25.561Z,6.68
2018-04-25T10:21:31.982Z,4.90
2018-04-25T10:22:38.440Z,4.10
2018-04-25T10:23:45.675Z,4.68
2018-04-25T10:24:53.691Z,4.05
2018-04-25T10:26:00.709Z,5.65
2018-04-25T10:27:07.752Z,6.43
2018-04-25T10:28:14.903Z,4.47
2018-04-25T10:29:22.697Z,7.72
2018-04-25T10:30:30.220Z,4.80
2018-04-25T10:31:36.968Z,6.12
2018-04-25T10:32:43.495Z,4.35
2018-04-25T10:33:50.294Z,5.22
2018-04-25T10:34:56.753Z,4.30
2018-04-25T10:36:03.543Z,4.40
2018-04-25T10:37:10.489Z,5.05
2018-04-25T10:38:17.514Z,6.75
2018-04-25T10:39:24.446Z,5.75
2018-04-25T10:40:31.789Z,7.10
2018-04-25T10:41:39.117Z,5.18
2018-04-25T10:42:46.130Z,4.85
2018-04-25T10:43:52.407Z,4.97
2018-04-25T10:44:58.402Z,5.37
2018-04-25T10:46:04.234Z,6.05
2018-04-25T10:47:10.794Z,6.22
2018-04-25T10:48:18.067Z,4.75
2018-04-25T10:49:25.644Z,5.07
2018-04-25T10:50:32.324Z,5.00
2018-04-25T10:51:39.822Z,6.00
2018-04-25T10:52:46.323Z,4.80
2018-04-25T10:53:53.380Z,4.53
2018-04-25T10:54:59.919Z,4.35
2018-04-25T10:56:05.939Z,4.87
2018-04-25T10:57:14.857Z,5.97
2018-04-25T10:58:22.210Z,5.12
2018-04-25T10:59:28.758Z,5.40
2018-04-25T11:00:35.067Z,5.03
2018-04-25T11:01:41.631Z,5.25
2018-04-25T11:02:48.266Z,4.87
2018-04-25T11:03:54.644Z,5.55
2018-04-25T11:05:01.003Z,5.00
2018-04-25T11:06:07.596Z,4.90
2018-04-25T11:07:14.722Z,4.70
2018-04-25T11:08:22.245Z,4.87
2018-04-25T11:09:28.960Z,4.03
2018-04-25T11:10:36.066Z,5.07
2018-04-25T11:11:44.244Z,4.90
2018-04-25T11:12:52.860Z,3.75
2018-04-25T11:13:59.808Z,5.55
2018-04-25T11:15:06.735Z,5.10
2018-04-25T11:16:12.936Z,5.03
2018-04-25T11:17:19.210Z,5.95
2018-04-25T11:18:26.123Z,5.15
2018-04-25T11:19:32.652Z,5.22
2018-04-25T11:20:40.342Z,5.78
2018-04-25T11:21:47.693Z,5.85
2018-04-25T11:24:08.293Z,3.85
2018-04-25T11:25:17.310Z,4.93
2018-04-25T11:26:24.873Z,4.20
2018-04-25T11:27:33.396Z,7.82
2018-04-25T11:28:41.670Z,4.03
2018-04-25T11:29:50.108Z,5.10
2018-04-25T11:30:57.265Z,5.57
2018-04-25T11:32:03.943Z,3.85
2018-04-25T11:33:11.125Z,3.50
2018-04-25T11:34:17.834Z,3.40
2018-04-25T11:35:24.934Z,3.80
2018-04-25T11:36:32.854Z,3.97
2018-04-25T11:37:41.735Z,3.45
2018-04-25T11:38:49.017Z,3.20
2018-04-25T11:39:56.208Z,3.65
2018-04-25T11:41:03.583Z,2.62
2018-04-25T11:42:10.787Z,5.43
2018-04-25T11:43:17.883Z,3.47
2018-04-25T11:44:24.179Z,2.97
2018-04-25T11:45:30.815Z,3.00
2018-04-25T11:46:37.276Z,5.57
2018-04-25T11:47:43.836Z,2.10
2018-04-25T11:48:50.023Z,2.87
2018-04-25T11:49:56.425Z,2.08
2018-04-25T11:51:02.744Z,2.22
2018-04-25T11:52:10.263Z,2.28
2018-04-25T11:53:17.217Z,1.90
2018-04-25T11:54:24.315Z,2.85
2018-04-25T11:55:31.481Z,1.30
2018-04-25T11:56:37.855Z,1.45
2018-04-25T11:57:44.258Z,1.25
2018-04-25T11:58:50.685Z,1.70
2018-04-25T11:59:58.151Z,1.30
2018-04-25T12:01:04.399Z,1.50
2018-04-25T12:02:11.076Z,1.90
2018-04-25T12:03:17.701Z,2.15
2018-04-25T12:04:24.110Z,1.20
2018-04-25T12:05:30.531Z,1.40
2018-04-25T12:06:36.742Z,1.35
2018-04-25T12:07:43.859Z,2.70
2018-04-25T12:08:50.699Z,1.42
2018-04-25T12:09:57.549Z,1.45
2018-04-25T12:11:04.343Z,1.92
2018-04-25T12:12:10.621Z,1.50
2018-04-25T12:13:16.769Z,1.75
2018-04-25T12:14:23.990Z,1.20
2018-04-25T12:15:30.213Z,2.00
2018-04-25T12:16:36.720Z,1.45
2018-04-25T12:17:43.580Z,1.10
2018-04-25T12:18:50.576Z,1.70
2018-04-25T12:19:57.214Z,1.48
2018-04-25T12:21:03.592Z,2.67
2018-04-25T12:22:10.784Z,1.30
2018-04-25T12:23:17.122Z,1.73
2018-04-25T12:24:23.394Z,2.35
2018-04-25T12:25:30.428Z,1.73
2018-04-25T12:26:36.873Z,1.80
2018-04-25T12:27:43.525Z,2.22
2018-04-25T12:28:50.297Z,2.08
2018-04-25T12:29:56.434Z,1.87
2018-04-25T12:31:02.866Z,2.00
2018-04-25T12:32:09.230Z,3.30
2018-04-25T12:33:15.640Z,1.60
2018-04-25T12:34:25.125Z,1.42
2018-04-25T12:35:31.805Z,2.62
2018-04-25T12:36:38.162Z,1.55
2018-04-25T12:37:44.832Z,1.20
2018-04-25T12:38:51.316Z,1.25
2018-04-25T12:39:57.570Z,2.40
2018-04-25T12:41:03.561Z,1.15
2018-04-25T12:42:10.148Z,1.58
2018-04-25T12:43:16.492Z,1.30
2018-04-25T12:44:22.685Z,1.50
2018-04-25T12:45:29.705Z,1.62
2018-04-25T12:46:35.977Z,1.52
2018-04-25T12:47:42.196Z,2.70
2018-04-25T12:48:48.388Z,2.00
2018-04-25T12:49:56.572Z,2.58
2018-04-25T12:51:03.755Z,3.12
2018-04-25T12:52:09.983Z,2.22
2018-04-25T12:53:15.871Z,2.22
2018-04-25T12:54:22.090Z,2.25
2018-04-25T12:55:29.568Z,3.22
2018-04-25T12:56:35.880Z,3.22
2018-04-25T12:57:49.929Z,2.92
2018-04-25T12:58:56.379Z,2.95
2018-04-25T13:00:02.317Z,2.50
2018-04-25T13:01:09.250Z,3.25
2018-04-25T13:02:16.277Z,3.40
2018-04-25T13:03:23.205Z,3.72
2018-04-25T13:04:30.128Z,4.30
2018-04-25T13:05:37.058Z,2.92
2018-04-25T13:06:43.775Z,3.65
2018-04-25T13:07:50.707Z,4.03
2018-04-25T13:08:57.616Z,3.90
2018-04-25T13:10:04.041Z,4.20
2018-04-25T13:11:10.866Z,4.80
2018-04-25T13:12:17.688Z,4.55
2018-04-25T13:13:24.515Z,4.65
2018-04-25T13:14:31.130Z,3.35
2018-04-25T13:15:37.373Z,3.65
2018-04-25T13:16:43.682Z,3.58
2018-04-25T13:17:49.932Z,3.50
2018-04-25T13:18:56.198Z,3.85
2018-04-25T13:20:02.420Z,3.30
2018-04-25T13:21:10.835Z,5.53
2018-04-25T13:22:16.714Z,3.75
2018-04-25T13:23:23.011Z,4.03
2018-04-25T13:24:29.140Z,4.57
2018-04-25T13:25:35.731Z,5.75
2018-04-25T13:26:42.054Z,5.30
2018-04-25T13:27:48.335Z,3.90
2018-04-25T13:28:54.673Z,4.05
2018-04-25T13:30:01.084Z,4.87
2018-04-25T13:31:08.724Z,5.00
2018-04-25T13:32:15.027Z,3.15
2018-04-25T13:33:21.303Z,3.75
2018-04-25T13:34:27.535Z,4.25
2018-04-25T13:35:33.742Z,3.92
2018-04-25T13:36:41.258Z,3.75
2018-04-25T13:37:48.787Z,3.72
2018-04-25T13:38:55.176Z,3.28
2018-04-25T13:40:01.439Z,3.62
2018-04-25T13:41:07.769Z,4.65
2018-04-25T13:42:13.971Z,3.40
2018-04-25T13:43:20.211Z,4.10
2018-04-25T13:44:26.519Z,4.18
2018-04-25T13:45:33.250Z,4.20
2018-04-25T13:46:39.302Z,3.37
2018-04-25T13:47:45.550Z,3.80
2018-04-25T13:48:51.882Z,5.43
2018-04-25T13:49:58.166Z,3.45
2018-04-25T13:51:04.366Z,3.72
2018-04-25T13:52:10.588Z,4.25
2018-04-25T13:53:17.275Z,4.22
2018-04-25T13:54:23.503Z,5.10
2018-04-25T13:55:29.735Z,3.58
2018-04-25T13:56:36.081Z,3.53
2018-04-25T13:57:42.331Z,3.80
2018-04-25T13:58:48.581Z,4.10
2018-04-25T13:59:55.957Z,5.90
2018-04-25T14:01:02.163Z,3.42
2018-04-25T14:02:08.407Z,4.45
2018-04-25T14:03:14.442Z,3.95
2018-04-25T14:04:20.725Z,4.05
2018-04-25T14:05:26.938Z,4.30
2018-04-25T14:06:33.479Z,3.65
2018-04-25T14:07:39.402Z,4.93
2018-04-25T14:08:46.126Z,3.60
2018-04-25T14:09:52.439Z,4.28
2018-04-25T14:10:58.508Z,4.28
2018-04-25T14:12:04.677Z,4.18
2018-04-25T14:13:11.523Z,4.25
2018-04-25T14:14:17.723Z,4.00
2018-04-25T14:15:25.303Z,4.47
2018-04-25T14:16:31.693Z,4.50
2018-04-25T14:17:37.977Z,3.50
2018-04-25T14:18:44.342Z,3.58
2018-04-25T14:19:50.524Z,4.57
2018-04-25T14:20:56.755Z,3.72
2018-04-25T14:22:03.271Z,3.33
2018-04-25T14:23:10.276Z,3.33
2018-04-25T14:24:17.239Z,3.15
2018-04-25T14:25:23.528Z,3.25
2018-04-25T14:26:29.752Z,2.50
2018-04-25T14:27:35.701Z,2.37
2018-04-25T14:28:44.148Z,2.45
2018-04-25T14:29:51.367Z,2.40
2018-04-25T14:30:57.710Z,2.47
2018-04-25T14:32:04.080Z,2.10
2018-04-25T14:33:10.476Z,2.40
2018-04-25T14:34:16.809Z,2.65
2018-04-25T14:35:22.957Z,2.10
2018-04-25T14:36:29.210Z,2.80
2018-04-25T14:37:35.395Z,2.50
2018-04-25T14:38:41.663Z,2.90
2018-04-25T14:39:47.926Z,3.53
2018-04-25T14:40:54.567Z,3.67
2018-04-25T14:42:00.923Z,3.12
2018-04-25T14:43:07.139Z,3.80
2018-04-25T14:44:15.690Z,3.70
2018-04-25T14:45:23.765Z,3.75
2018-04-25T14:46:30.014Z,4.45
2018-04-25T14:47:36.304Z,3.33
2018-04-25T14:48:42.531Z,2.90
2018-04-25T14:49:48.728Z,4.05
2018-04-25T14:50:54.928Z,3.20
2018-04-25T14:52:01.232Z,3.42
2018-04-25T14:53:07.448Z,2.78